Time;durP1;ratioP1;P1;durP2;ratioP2;P2;SDS_P1;SDS_P2;PMS_P1;PMS_P2;Temp;Humidity;BMP_temperature;BMP_pressure;BME280_temperature;BME280_humidity;BME280_pressure;Samples;Min_cycle;Max_cycle;Signal;HPM_P1;HPM_P2
2022/08/18 00:01:22;;;;;;;6.13;5.63;;;;;;;;;;5034191;28;20052;-82
2022/08/18 00:03:51;;;;;;;6.97;6.47;;;;;;;;;;5016205;28;20053;-82
2022/08/18 00:06:29;;;;;;;8.85;5.65;;;;;;;;;;5017762;28;20041;-82
2022/08/18 00:09:01;;;;;;;7.07;6.32;;;;;;;;;;5015878;28;20049;-81
2022/08/18 00:11:29;;;;;;;6.85;6.15;;;;;;;;;;5015863;28;20045;-80
2022/08/18 00:14:10;;;;;;;7.28;6.18;;;;;;;;;;5017277;28;20655;-82
2022/08/18 00:16:40;;;;;;;9.00;6.20;;;;;;;;;;5016250;28;20575;-82
2022/08/18 00:19:07;;;;;;;7.03;6.32;;;;;;;;;;5033504;28;20160;-82
2022/08/18 00:21:36;;;;;;;6.75;6.15;;;;;;;;;;5015872;28;20073;-82
2022/08/18 00:24:03;;;;;;;8.77;6.38;;;;;;;;;;5017397;28;20084;-81
2022/08/18 00:26:30;;;;;;;6.68;6.13;;;;;;;;;;5032978;28;20091;-81
2022/08/18 00:29:03;;;;;;;7.43;6.57;;;;;;;;;;5033120;28;20050;-82
2022/08/18 00:31:30;;;;;;;7.38;6.55;;;;;;;;;;5032276;28;20404;-82
2022/08/18 00:33:58;;;;;;;7.05;6.45;;;;;;;;;;5015525;28;20049;-83
2022/08/18 00:36:25;;;;;;;7.25;6.10;;;;;;;;;;5015696;28;20081;-82
2022/08/18 00:38:53;;;;;;;7.60;6.15;;;;;;;;;;5033324;28;20060;-80
2022/08/18 00:41:26;;;;;;;6.60;6.03;;;;;;;;;;5015336;28;20045;-82
2022/08/18 00:43:54;;;;;;;9.23;6.38;;;;;;;;;;5015489;28;20054;-80
2022/08/18 00:46:23;;;;;;;7.45;6.78;;;;;;;;;;5015232;28;20456;-82
2022/08/18 00:48:51;;;;;;;7.03;6.35;;;;;;;;;;5033077;28;20088;-82
2022/08/18 00:51:22;;;;;;;6.72;6.20;;;;;;;;;;5015148;28;20046;-81
2022/08/18 00:53:52;;;;;;;7.03;6.47;;;;;;;;;;5015995;28;20128;-83
2022/08/18 00:56:24;;;;;;;11.95;7.10;;;;;;;;;;5018935;28;20049;-83
2022/08/18 00:58:54;;;;;;;7.75;6.45;;;;;;;;;;5040108;28;20057;-83
2022/08/18 01:01:23;;;;;;;8.82;6.38;;;;;;;;;;5022315;28;20049;-83
2022/08/18 01:03:53;;;;;;;10.30;6.57;;;;;;;;;;5021877;28;20077;-82
2022/08/18 01:06:34;;;;;;;7.25;6.65;;;;;;;;;;5020363;28;20076;-82
2022/08/18 01:09:02;;;;;;;6.90;6.40;;;;;;;;;;5020050;28;20053;-83
2022/08/18 01:11:29;;;;;;;7.97;7.18;;;;;;;;;;5020403;28;20080;-83
2022/08/18 01:13:57;;;;;;;6.57;6.07;;;;;;;;;;5021190;28;20049;-84
2022/08/18 01:22:29;;;;;;;7.65;6.85;;;;;;;;;;5038225;28;20084;-83
2022/08/18 01:27:43;;;;;;;8.95;6.97;;;;;;;;;;5037314;28;20116;-83
2022/08/18 01:30:16;;;;;;;7.65;6.80;;;;;;;;;;5019053;28;20045;-84
2022/08/18 01:32:46;;;;;;;8.30;7.07;;;;;;;;;;5035165;28;20041;-83
2022/08/18 01:35:16;;;;;;;6.35;5.85;;;;;;;;;;5018893;28;20042;-83
2022/08/18 01:37:43;;;;;;;8.35;6.68;;;;;;;;;;5018793;28;20049;-83
2022/08/18 01:40:12;;;;;;;7.70;7.00;;;;;;;;;;5036525;28;20052;-83
2022/08/18 01:43:02;;;;;;;11.27;7.38;;;;;;;;;;5037829;28;20500;-83
2022/08/18 01:45:32;;;;;;;12.13;7.00;;;;;;;;;;5027135;28;20500;-83
2022/08/18 01:47:59;;;;;;;7.20;6.47;;;;;;;;;;5038756;28;20046;-83
2022/08/18 01:50:27;;;;;;;10.68;7.35;;;;;;;;;;5040565;28;20053;-83
2022/08/18 01:52:54;;;;;;;8.55;7.30;;;;;;;;;;5039920;28;20096;-83
2022/08/18 01:55:21;;;;;;;8.30;6.60;;;;;;;;;;5039817;28;20100;-83
2022/08/18 01:57:48;;;;;;;7.88;7.07;;;;;;;;;;5021700;28;20061;-82
2022/08/18 02:00:17;;;;;;;7.78;7.05;;;;;;;;;;5038617;28;20132;-83
2022/08/18 02:02:45;;;;;;;7.60;6.95;;;;;;;;;;5021217;28;20077;-81
2022/08/18 02:05:28;;;;;;;9.73;7.32;;;;;;;;;;5023547;28;20054;-83
2022/08/18 02:07:57;;;;;;;7.68;7.07;;;;;;;;;;5039006;28;20480;-83
2022/08/18 02:10:25;;;;;;;11.13;7.30;;;;;;;;;;5038506;28;20045;-83
2022/08/18 02:12:52;;;;;;;9.18;7.03;;;;;;;;;;5038158;28;20516;-83
2022/08/18 02:15:19;;;;;;;8.77;6.85;;;;;;;;;;5038466;28;20519;-82
2022/08/18 02:17:46;;;;;;;7.93;7.22;;;;;;;;;;5020649;28;20045;-83
2022/08/18 02:20:15;;;;;;;9.18;7.10;;;;;;;;;;5037927;28;20115;-83
2022/08/18 02:22:43;;;;;;;12.10;7.38;;;;;;;;;;5020690;28;20566;-83
2022/08/18 02:25:11;;;;;;;10.05;6.65;;;;;;;;;;5020311;28;20397;-83
2022/08/18 02:27:38;;;;;;;8.05;7.20;;;;;;;;;;5019649;28;20085;-83
2022/08/18 02:30:07;;;;;;;7.35;6.85;;;;;;;;;;5020185;28;20046;-83
2022/08/18 02:32:35;;;;;;;7.88;7.18;;;;;;;;;;5037652;28;20084;-83
2022/08/18 02:35:02;;;;;;;8.38;7.57;;;;;;;;;;5020158;28;20076;-82
2022/08/18 02:37:32;;;;;;;9.10;7.55;;;;;;;;;;5028348;28;20132;-82
2022/08/18 02:39:59;;;;;;;8.15;7.25;;;;;;;;;;5016905;28;20081;-81
2022/08/18 02:42:27;;;;;;;7.93;7.13;;;;;;;;;;5016813;28;20112;-82
2022/08/18 02:44:54;;;;;;;8.15;7.32;;;;;;;;;;5034250;28;20512;-81
2022/08/18 02:47:22;;;;;;;8.55;7.80;;;;;;;;;;5016994;28;20073;-82
2022/08/18 02:49:49;;;;;;;8.32;7.70;;;;;;;;;;5017040;28;20049;-81
2022/08/18 02:52:16;;;;;;;10.30;7.63;;;;;;;;;;5016790;28;20108;-81
2022/08/18 02:54:43;;;;;;;8.68;7.20;;;;;;;;;;5033834;28;20050;-82
2022/08/18 02:57:11;;;;;;;9.60;7.85;;;;;;;;;;5034343;28;20562;-81
2022/08/18 02:59:39;;;;;;;8.75;8.02;;;;;;;;;;5016924;28;20084;-81
2022/08/18 03:02:08;;;;;;;9.30;8.25;;;;;;;;;;5016925;28;20540;-82
2022/08/18 03:04:35;;;;;;;8.10;7.38;;;;;;;;;;5020243;28;20049;-82
2022/08/18 03:07:04;;;;;;;8.55;7.75;;;;;;;;;;5018494;28;20108;-82
2022/08/18 03:09:33;;;;;;;9.02;8.00;;;;;;;;;;5017272;28;20042;-82
2022/08/18 03:12:00;;;;;;;8.60;7.75;;;;;;;;;;5018190;28;20488;-83
2022/08/18 03:14:28;;;;;;;8.90;8.20;;;;;;;;;;5036317;28;20096;-82
2022/08/18 03:16:55;;;;;;;8.40;7.60;;;;;;;;;;5018102;28;20052;-82
2022/08/18 03:19:24;;;;;;;8.82;8.02;;;;;;;;;;5036202;28;20575;-82
2022/08/18 03:21:51;;;;;;;8.95;8.05;;;;;;;;;;5036225;28;20084;-83
2022/08/18 03:24:18;;;;;;;8.88;7.97;;;;;;;;;;5019111;28;20049;-83
2022/08/18 03:26:49;;;;;;;8.38;7.28;;;;;;;;;;5019599;28;20046;-83
2022/08/18 03:29:16;;;;;;;8.82;7.93;;;;;;;;;;5036498;28;20051;-82
2022/08/18 03:31:44;;;;;;;8.27;7.38;;;;;;;;;;5018650;28;20064;-82
2022/08/18 03:34:12;;;;;;;8.23;7.55;;;;;;;;;;5018008;28;20042;-83
2022/08/18 03:36:40;;;;;;;7.93;7.32;;;;;;;;;;5018393;28;20420;-82
2022/08/18 03:39:09;;;;;;;9.05;7.47;;;;;;;;;;5017974;28;20124;-82
2022/08/18 03:41:38;;;;;;;8.60;7.80;;;;;;;;;;5017704;28;20049;-83
2022/08/18 03:44:26;;;;;;;9.02;7.55;;;;;;;;;;5020947;28;20506;-82
2022/08/18 03:46:54;;;;;;;9.68;8.13;;;;;;;;;;5034082;28;20424;-82
2022/08/18 03:49:21;;;;;;;13.48;8.05;;;;;;;;;;5017751;28;20049;-82
2022/08/18 03:51:50;;;;;;;8.45;7.65;;;;;;;;;;5017611;28;20076;-81
2022/08/18 03:54:17;;;;;;;8.60;7.80;;;;;;;;;;5018495;28;20046;-82
2022/08/18 03:56:46;;;;;;;7.70;7.15;;;;;;;;;;5035655;28;20473;-82
2022/08/18 03:59:16;;;;;;;8.85;8.15;;;;;;;;;;5017466;28;20053;-83
2022/08/18 04:01:44;;;;;;;9.35;8.00;;;;;;;;;;5017600;28;20080;-83
2022/08/18 04:04:13;;;;;;;8.32;7.45;;;;;;;;;;5017111;28;20053;-82
2022/08/18 04:06:47;;;;;;;8.93;8.02;;;;;;;;;;5034825;28;20080;-83
2022/08/18 04:09:15;;;;;;;8.40;7.13;;;;;;;;;;5016739;28;20423;-82
2022/08/18 04:11:43;;;;;;;9.18;8.13;;;;;;;;;;5034414;28;20068;-82
2022/08/18 04:14:12;;;;;;;9.68;7.70;;;;;;;;;;5034262;28;20441;-83
2022/08/18 04:16:40;;;;;;;8.88;7.95;;;;;;;;;;5034748;28;20108;-82
2022/08/18 04:19:07;;;;;;;9.10;8.20;;;;;;;;;;5016200;28;20057;-82
2022/08/18 04:21:36;;;;;;;10.52;8.05;;;;;;;;;;5033741;28;20053;-81
2022/08/18 04:24:04;;;;;;;9.38;8.40;;;;;;;;;;5016995;28;20140;-83
2022/08/18 04:26:32;;;;;;;10.68;8.40;;;;;;;;;;5017417;28;20524;-82
2022/08/18 04:29:00;;;;;;;10.32;8.30;;;;;;;;;;5034097;28;20042;-81
2022/08/18 04:31:28;;;;;;;11.85;8.18;;;;;;;;;;5033667;28;20053;-81
2022/08/18 04:33:56;;;;;;;9.00;8.18;;;;;;;;;;5032510;28;20049;-82
2022/08/18 04:36:23;;;;;;;9.02;8.07;;;;;;;;;;5015926;28;20131;-81
2022/08/18 04:38:51;;;;;;;10.32;8.68;;;;;;;;;;5016243;28;20099;-81
2022/08/18 04:41:26;;;;;;;12.75;8.55;;;;;;;;;;5016561;28;20080;-81
2022/08/18 04:43:54;;;;;;;11.48;7.75;;;;;;;;;;5033396;28;20046;-80
2022/08/18 04:46:21;;;;;;;12.00;8.38;;;;;;;;;;5016639;28;20050;-80
2022/08/18 04:48:51;;;;;;;9.60;8.55;;;;;;;;;;5016538;28;20075;-82
2022/08/18 04:51:19;;;;;;;9.63;8.30;;;;;;;;;;5033596;28;20050;-82
2022/08/18 04:54:06;;;;;;;11.52;8.75;;;;;;;;;;5033562;28;20064;-83
2022/08/18 04:56:36;;;;;;;10.80;8.00;;;;;;;;;;5016055;28;20049;-81
2022/08/18 04:59:13;;;;;;;17.30;8.80;;;;;;;;;;5032834;28;20089;-82
2022/08/18 05:01:44;;;;;;;9.07;8.18;;;;;;;;;;5033464;28;20464;-83
2022/08/18 05:04:13;;;;;;;8.55;7.68;;;;;;;;;;5033429;28;20057;-82
2022/08/18 05:06:42;;;;;;;9.80;8.18;;;;;;;;;;5033246;28;20056;-83
2022/08/18 05:09:10;;;;;;;10.65;7.90;;;;;;;;;;5033047;28;20516;-82
2022/08/18 05:11:37;;;;;;;11.43;8.15;;;;;;;;;;5016153;28;20111;-82
2022/08/18 05:14:06;;;;;;;11.20;8.27;;;;;;;;;;5016145;28;20046;-83
2022/08/18 05:16:35;;;;;;;11.05;8.20;;;;;;;;;;5034361;28;20100;-83
2022/08/18 05:19:15;;;;;;;13.93;8.52;;;;;;;;;;5037269;28;20049;-82
2022/08/18 05:21:46;;;;;;;9.32;8.20;;;;;;;;;;5020255;28;20049;-83
2022/08/18 05:24:17;;;;;;;9.00;8.13;;;;;;;;;;5037892;28;20079;-82
2022/08/18 05:26:44;;;;;;;9.27;8.45;;;;;;;;;;5020108;28;20073;-83
2022/08/18 05:29:12;;;;;;;9.07;8.25;;;;;;;;;;5019621;28;20050;-83
2022/08/18 05:31:45;;;;;;;9.40;8.48;;;;;;;;;;5037205;28;20041;-82
2022/08/18 05:34:13;;;;;;;9.13;8.32;;;;;;;;;;5037090;28;20049;-82
2022/08/18 05:36:46;;;;;;;21.48;13.48;;;;;;;;;;5019175;28;20052;-83
2022/08/18 05:39:37;;;;;;;16.05;9.68;;;;;;;;;;5018692;28;20077;-82
2022/08/18 05:42:06;;;;;;;14.27;9.38;;;;;;;;;;5036134;28;20049;-82
2022/08/18 05:44:36;;;;;;;22.02;9.82;;;;;;;;;;5018258;28;20080;-83
2022/08/18 05:47:13;;;;;;;13.15;8.93;;;;;;;;;;5036284;28;20085;-83
2022/08/18 05:49:42;;;;;;;12.50;9.30;;;;;;;;;;5035973;28;20092;-82
2022/08/18 05:52:14;;;;;;;10.15;9.30;;;;;;;;;;5018952;28;20077;-82
2022/08/18 05:57:33;;;;;;;13.95;8.15;;;;;;;;;;5036328;28;20103;-83
2022/08/18 06:00:04;;;;;;;16.67;13.02;;;;;;;;;;5035821;28;20081;-83
2022/08/18 06:02:32;;;;;;;15.50;13.95;;;;;;;;;;5018237;28;20049;-83
2022/08/18 06:05:02;;;;;;;17.27;12.90;;;;;;;;;;5036220;28;20056;-82
2022/08/18 06:07:40;;;;;;;12.93;9.43;;;;;;;;;;5036338;28;20473;-82
2022/08/18 06:10:08;;;;;;;12.20;9.00;;;;;;;;;;5018023;28;20584;-83
2022/08/18 06:12:37;;;;;;;10.82;8.98;;;;;;;;;;5018214;28;20081;-82
2022/08/18 06:15:09;;;;;;;;;;;;;;;;;;5018601;28;20053;-83
2022/08/18 06:17:43;;;;;;;13.05;9.90;;;;;;;;;;5034920;28;19983;-84
2022/08/18 06:20:18;;;;;;;19.08;10.00;;;;;;;;;;5018135;28;20124;-83
2022/08/18 06:23:06;;;;;;;14.00;9.50;;;;;;;;;;5017562;28;20057;-83
2022/08/18 06:25:36;;;;;;;10.07;9.02;;;;;;;;;;5017720;28;20050;-83
2022/08/18 06:28:06;;;;;;;18.10;9.98;;;;;;;;;;5034623;28;20053;-83
2022/08/18 06:30:57;;;;;;;16.30;8.98;;;;;;;;;;5017607;28;20427;-83
2022/08/18 06:33:24;;;;;;;16.33;10.55;;;;;;;;;;5035352;28;20104;-83
2022/08/18 06:35:54;;;;;;;25.27;10.18;;;;;;;;;;5017849;28;20045;-83
2022/08/18 06:38:38;;;;;;;17.10;9.85;;;;;;;;;;5035493;28;20049;-83
2022/08/18 06:41:11;;;;;;;13.52;10.35;;;;;;;;;;5034993;28;20444;-83
2022/08/18 06:44:03;;;;;;;12.63;9.93;;;;;;;;;;5025714;28;20053;-83
2022/08/18 06:46:49;;;;;;;11.05;8.95;;;;;;;;;;5035513;28;20045;-83
2022/08/18 06:49:37;;;;;;;10.60;9.32;;;;;;;;;;5017927;28;20042;-82
2022/08/18 06:52:23;;;;;;;10.85;9.15;;;;;;;;;;5017670;28;20489;-82
2022/08/18 06:54:50;;;;;;;10.93;9.52;;;;;;;;;;5017321;28;20065;-82
2022/08/18 06:57:41;;;;;;;12.25;9.63;;;;;;;;;;5035385;28;20107;-83
2022/08/18 07:00:29;;;;;;;15.75;9.68;;;;;;;;;;5009908;28;20405;-83
2022/08/18 07:03:01;;;;;;;21.05;9.85;;;;;;;;;;5035975;28;20505;-82
2022/08/18 07:05:33;;;;;;;33.65;11.73;;;;;;;;;;5038824;28;20053;-82
2022/08/18 07:08:14;;;;;;;15.45;9.57;;;;;;;;;;5020465;28;20123;-83
2022/08/18 07:10:46;;;;;;;14.65;9.25;;;;;;;;;;5018003;28;20049;-83
2022/08/18 07:13:22;;;;;;;24.80;10.27;;;;;;;;;;5017325;28;20046;-83
2022/08/18 07:15:49;;;;;;;20.63;9.63;;;;;;;;;;5035063;28;20091;-83
2022/08/18 07:18:21;;;;;;;16.13;8.93;;;;;;;;;;5034400;28;20073;-83
2022/08/18 07:20:56;;;;;;;12.27;9.07;;;;;;;;;;5016896;28;20115;-83
2022/08/18 07:23:37;;;;;;;13.07;9.35;;;;;;;;;;5034094;28;20551;-82
2022/08/18 07:26:07;;;;;;;16.10;10.05;;;;;;;;;;5034196;28;20049;-81
2022/08/18 07:28:37;;;;;;;18.13;11.57;;;;;;;;;;5034352;28;20045;-81
2022/08/18 07:31:18;;;;;;;12.80;10.82;;;;;;;;;;5034572;28;20058;-82
2022/08/18 07:33:50;;;;;;;13.48;11.20;;;;;;;;;;5016734;28;20090;-81
2022/08/18 07:36:20;;;;;;;16.67;12.68;;;;;;;;;;5017446;28;20045;-81
2022/08/18 07:38:55;;;;;;;18.25;12.73;;;;;;;;;;5034500;28;20050;-81
2022/08/18 07:41:28;;;;;;;20.02;13.27;;;;;;;;;;5024845;28;20053;-81
2022/08/18 07:44:09;;;;;;;26.20;15.50;;;;;;;;;;5045414;28;20064;-82
2022/08/18 07:47:00;;;;;;;19.70;15.93;;;;;;;;;;5043588;28;20500;-81
2022/08/18 07:49:31;;;;;;;19.40;16.42;;;;;;;;;;5035624;28;20475;-82
2022/08/18 07:52:06;;;;;;;21.77;17.20;;;;;;;;;;5040938;28;20061;-81
2022/08/18 07:55:10;;;;;;;20.65;16.45;;;;;;;;;;5041618;28;20057;-81
2022/08/18 07:57:37;;;;;;;;;;;;;;;;;;5041924;28;20049;-81
2022/08/18 08:00:11;;;;;;;20.95;17.67;;;;;;;;;;5040110;28;19921;-82
2022/08/18 08:02:52;;;;;;;;;;;;;;;;;;5041724;28;20049;-82
2022/08/18 08:05:33;;;;;;;21.55;15.95;;;;;;;;;;5040977;28;20384;-82
2022/08/18 08:08:11;;;;;;;22.63;17.58;;;;;;;;;;5022022;28;20471;-81
2022/08/18 08:10:50;;;;;;;20.10;17.08;;;;;;;;;;5022444;28;20095;-82
2022/08/18 08:13:27;;;;;;;23.65;18.45;;;;;;;;;;5037508;28;20045;-82
2022/08/18 08:16:22;;;;;;;19.60;17.20;;;;;;;;;;5022153;28;20050;-82
2022/08/18 08:19:02;;;;;;;20.75;18.42;;;;;;;;;;5037449;28;20080;-81
2022/08/18 08:21:42;;;;;;;33.38;18.50;;;;;;;;;;5018858;28;20053;-81
2022/08/18 08:24:20;;;;;;;20.73;16.67;;;;;;;;;;5034565;28;20045;-82
2022/08/18 08:27:04;;;;;;;21.08;16.17;;;;;;;;;;5035517;28;20053;-81
2022/08/18 08:29:58;;;;;;;21.23;16.80;;;;;;;;;;5030742;28;20084;-82
2022/08/18 08:32:34;;;;;;;18.35;15.63;;;;;;;;;;5033464;28;20096;-82
2022/08/18 08:35:04;;;;;;;16.85;15.25;;;;;;;;;;5034151;28;20087;-81
2022/08/18 08:37:31;;;;;;;15.90;14.13;;;;;;;;;;5016766;28;20120;-81
2022/08/18 08:40:01;;;;;;;19.67;14.50;;;;;;;;;;5033539;28;20096;-81
2022/08/18 08:42:31;;;;;;;15.43;13.27;;;;;;;;;;5016334;28;20505;-81
2022/08/18 08:45:09;;;;;;;15.55;13.90;;;;;;;;;;5016523;28;20514;-81
2022/08/18 08:47:40;;;;;;;22.33;14.50;;;;;;;;;;5023760;28;20488;-82
2022/08/18 08:50:12;;;;;;;25.85;17.15;;;;;;;;;;5033064;28;20276;-83
2022/08/18 08:52:46;;;;;;;19.88;14.55;;;;;;;;;;5017649;28;20448;-82
2022/08/18 08:55:16;;;;;;;29.45;16.27;;;;;;;;;;5019620;28;20049;-83
2022/08/18 08:57:49;;;;;;;30.90;15.65;;;;;;;;;;5037025;28;20081;-82
2022/08/18 09:00:17;;;;;;;25.98;16.10;;;;;;;;;;5037342;28;20136;-82
2022/08/18 09:03:03;;;;;;;21.23;15.30;;;;;;;;;;5019176;28;20072;-82
2022/08/18 09:05:35;;;;;;;20.50;15.30;;;;;;;;;;5019117;28;20049;-82
2022/08/18 09:08:09;;;;;;;21.23;13.90;;;;;;;;;;5036670;28;20064;-82
2022/08/18 09:10:58;;;;;;;18.15;14.45;;;;;;;;;;5019249;28;20487;-82
2022/08/18 09:13:33;;;;;;;26.88;15.05;;;;;;;;;;5036658;28;20045;-82
2022/08/18 09:16:15;;;;;;;18.65;15.05;;;;;;;;;;5036495;28;20041;-82
2022/08/18 09:18:54;;;;;;;16.88;14.50;;;;;;;;;;5019235;28;20053;-82
2022/08/18 09:21:27;;;;;;;20.48;14.68;;;;;;;;;;5036713;28;20053;-82
2022/08/18 09:24:04;;;;;;;19.92;15.20;;;;;;;;;;5023582;28;20057;-82
2022/08/18 09:26:38;;;;;;;19.67;13.85;;;;;;;;;;5024111;28;20053;-83
2022/08/18 09:29:13;;;;;;;15.52;13.25;;;;;;;;;;5022583;28;20042;-82
2022/08/18 09:31:42;;;;;;;27.33;17.02;;;;;;;;;;5040674;28;20147;-82
2022/08/18 09:34:13;;;;;;;20.73;15.40;;;;;;;;;;5025024;28;20045;-82
2022/08/18 09:36:41;;;;;;;18.38;16.40;;;;;;;;;;5022398;28;20049;-82
2022/08/18 09:42:35;;;;;;;19.80;15.35;;;;;;;;;;5039259;28;20500;-82
2022/08/18 09:45:31;;;;;;;17.60;15.90;;;;;;;;;;5038786;28;20452;-82
2022/08/18 09:48:05;;;;;;;15.75;14.07;;;;;;;;;;5038610;28;20066;-82
2022/08/18 09:50:38;;;;;;;16.90;15.05;;;;;;;;;;5021328;28;20525;-82
2022/08/18 09:53:24;;;;;;;24.52;16.33;;;;;;;;;;5019960;28;20060;-82
2022/08/18 09:55:53;;;;;;;27.60;18.10;;;;;;;;;;5020169;28;20559;-82
2022/08/18 09:58:27;;;;;;;23.10;14.57;;;;;;;;;;5020953;28;20045;-81
2022/08/18 10:01:14;;;;;;;31.15;17.73;;;;;;;;;;5037031;28;20049;-81
2022/08/18 10:03:43;;;;;;;30.63;17.45;;;;;;;;;;5018912;28;20081;-82
2022/08/18 10:06:17;;;;;;;26.98;18.20;;;;;;;;;;5036972;28;20562;-81
2022/08/18 10:08:58;;;;;;;27.02;20.58;;;;;;;;;;5019784;28;20077;-81
2022/08/18 10:11:40;;;;;;;25.83;19.33;;;;;;;;;;5019257;28;20045;-81
2022/08/18 10:14:26;;;;;;;26.75;18.77;;;;;;;;;;5036970;28;20049;-80
2022/08/18 10:17:01;;;;;;;25.35;17.98;;;;;;;;;;5036713;28;20049;-80
2022/08/18 10:20:02;;;;;;;24.35;18.63;;;;;;;;;;5036991;28;20473;-80
2022/08/18 10:22:36;;;;;;;25.05;17.60;;;;;;;;;;5035860;28;20061;-81
2022/08/18 10:25:04;;;;;;;19.77;17.73;;;;;;;;;;5035640;28;20088;-81
2022/08/18 10:27:50;;;;;;;17.52;15.45;;;;;;;;;;5035566;28;20049;-81
2022/08/18 10:30:33;;;;;;;22.58;15.77;;;;;;;;;;5035403;28;20081;-81
2022/08/18 10:33:39;;;;;;;19.58;15.05;;;;;;;;;;5035737;28;20045;-81
2022/08/18 10:36:06;;;;;;;21.83;16.48;;;;;;;;;;5017510;28;20467;-81
2022/08/18 10:38:39;;;;;;;17.05;15.23;;;;;;;;;;5035321;28;20053;-82
2022/08/18 10:41:23;;;;;;;21.13;13.38;;;;;;;;;;5018981;28;20056;-82
2022/08/18 10:43:51;;;;;;;18.02;15.23;;;;;;;;;;5018303;28;20050;-82
2022/08/18 10:46:25;;;;;;;19.17;13.57;;;;;;;;;;5018900;28;20144;-82
2022/08/18 10:49:14;;;;;;;14.13;12.82;;;;;;;;;;5018227;28;20077;-82
2022/08/18 10:52:10;;;;;;;16.70;13.82;;;;;;;;;;5020689;28;20128;-82
2022/08/18 10:54:50;;;;;;;17.25;13.80;;;;;;;;;;5034126;28;20049;-82
2022/08/18 10:57:40;;;;;;;16.38;13.02;;;;;;;;;;5035868;28;20061;-82
2022/08/18 11:00:12;;;;;;;12.27;11.02;;;;;;;;;;5017687;28;20049;-83
2022/08/18 11:02:59;;;;;;;15.55;11.35;;;;;;;;;;5034878;28;20057;-82
2022/08/18 11:05:46;;;;;;;14.52;13.05;;;;;;;;;;5025990;28;20423;-83
2022/08/18 11:08:16;;;;;;;14.80;13.23;;;;;;;;;;5042163;28;20469;-83
2022/08/18 11:10:49;;;;;;;15.45;13.80;;;;;;;;;;5040082;28;20045;-83
2022/08/18 11:14:02;;;;;;;14.75;13.20;;;;;;;;;;5040163;28;20052;-83
2022/08/18 11:16:43;;;;;;;17.27;15.15;;;;;;;;;;5040091;28;20428;-83
2022/08/18 11:19:13;;;;;;;18.10;14.52;;;;;;;;;;5040606;28;20112;-82
2022/08/18 11:21:44;;;;;;;16.70;14.48;;;;;;;;;;5071959;23;20045;-79
2022/08/18 11:24:24;;;;;;;28.60;14.77;;;;;;;;;;5100402;28;20044;-81
2022/08/18 11:26:51;;;;;;;18.33;14.82;;;;;;;;;;5098096;28;20048;-79
2022/08/18 11:29:25;;;;;;;14.95;13.55;;;;;;;;;;5097335;28;20048;-80
2022/08/18 11:31:55;;;;;;;16.80;13.65;;;;;;;;;;5090835;28;20047;-82
2022/08/18 11:34:47;;;;;;;14.50;13.10;;;;;;;;;;5077348;28;20040;-79
2022/08/18 11:37:42;;;;;;;17.08;13.75;;;;;;;;;;5079454;28;20044;-80
2022/08/18 11:40:19;;;;;;;14.88;12.75;;;;;;;;;;5056656;28;20052;-79
2022/08/18 11:43:10;;;;;;;18.42;13.68;;;;;;;;;;5078892;28;20107;-80
2022/08/18 11:45:46;;;;;;;21.50;13.00;;;;;;;;;;5076675;28;20109;-80
2022/08/18 11:48:13;;;;;;;12.13;10.48;;;;;;;;;;5077232;28;20048;-80
2022/08/18 11:50:53;;;;;;;14.57;11.45;;;;;;;;;;5075692;28;20525;-79
2022/08/18 11:53:33;;;;;;;14.63;10.32;;;;;;;;;;5077342;28;20128;-79
2022/08/18 11:56:13;;;;;;;12.80;11.35;;;;;;;;;;5075915;28;20048;-79
2022/08/18 11:58:44;;;;;;;14.38;10.70;;;;;;;;;;5075532;28;20048;-79
2022/08/18 12:01:37;;;;;;;11.65;10.55;;;;;;;;;;5075469;28;20135;-80
2022/08/18 12:04:27;;;;;;;12.10;10.80;;;;;;;;;;5076688;28;20577;-81
2022/08/18 12:07:15;;;;;;;10.60;9.80;;;;;;;;;;5077902;28;20577;-80
2022/08/18 12:10:05;;;;;;;11.77;10.07;;;;;;;;;;5062406;28;20040;-80
2022/08/18 12:12:46;;;;;;;12.50;11.25;;;;;;;;;;5078897;28;20048;-80
2022/08/18 12:15:17;;;;;;;12.33;11.23;;;;;;;;;;5077032;28;20495;-80
2022/08/18 12:17:51;;;;;;;13.10;11.10;;;;;;;;;;5079105;28;20312;-80
2022/08/18 12:20:20;;;;;;;12.30;11.00;;;;;;;;;;5076909;28;20056;-81
2022/08/18 12:22:48;;;;;;;13.82;12.55;;;;;;;;;;5078031;28;20059;-79
2022/08/18 12:25:17;;;;;;;17.25;13.77;;;;;;;;;;5075907;28;20135;-80
2022/08/18 12:27:51;;;;;;;18.08;11.90;;;;;;;;;;5076742;28;20135;-81
2022/08/18 12:30:18;;;;;;;9.98;9.07;;;;;;;;;;5077276;28;20109;-82
2022/08/18 12:32:45;;;;;;;14.48;12.52;;;;;;;;;;5058735;28;20048;-79
2022/08/18 12:35:21;;;;;;;13.30;11.38;;;;;;;;;;5074922;28;20044;-81
2022/08/18 12:37:51;;;;;;;10.88;10.05;;;;;;;;;;5076828;28;20044;-81
2022/08/18 12:40:38;;;;;;;12.05;9.23;;;;;;;;;;5077213;28;20416;-80
2022/08/18 12:43:06;;;;;;;8.13;7.43;;;;;;;;;;5075938;28;20080;-81
2022/08/18 12:45:33;;;;;;;10.82;8.40;;;;;;;;;;5059338;28;20084;-79
2022/08/18 12:48:04;;;;;;;8.30;7.50;;;;;;;;;;5058289;28;20056;-80
2022/08/18 12:50:33;;;;;;;8.98;7.75;;;;;;;;;;5058511;28;20048;-80
2022/08/18 12:53:20;;;;;;;10.07;9.07;;;;;;;;;;5078660;28;20052;-81
2022/08/18 12:56:05;;;;;;;11.35;8.27;;;;;;;;;;5066224;28;20064;-81
2022/08/18 12:58:36;;;;;;;9.13;8.25;;;;;;;;;;5064709;28;20519;-81
2022/08/18 13:01:06;;;;;;;8.48;7.70;;;;;;;;;;5062227;28;20438;-81
2022/08/18 13:03:33;;;;;;;9.52;8.40;;;;;;;;;;5061401;28;20067;-81
2022/08/18 13:06:03;;;;;;;8.77;7.82;;;;;;;;;;5081957;28;20090;-81
2022/08/18 13:08:32;;;;;;;8.73;7.90;;;;;;;;;;5061107;28;20071;-81
2022/08/18 13:11:13;;;;;;;8.15;7.35;;;;;;;;;;5076111;28;20454;-81
2022/08/18 13:13:51;;;;;;;12.25;8.52;;;;;;;;;;5077054;28;20041;-81
2022/08/18 13:16:24;;;;;;;9.05;8.18;;;;;;;;;;5060677;28;20098;-81
2022/08/18 13:19:05;;;;;;;10.10;8.50;;;;;;;;;;5061815;28;20052;-79
2022/08/18 13:21:32;;;;;;;10.57;8.52;;;;;;;;;;5059174;28;20135;-81
2022/08/18 13:24:07;;;;;;;11.88;9.88;;;;;;;;;;5059155;28;20048;-81
2022/08/18 13:26:37;;;;;;;9.45;7.88;;;;;;;;;;5060850;28;20094;-80
2022/08/18 13:29:07;;;;;;;9.30;7.00;;;;;;;;;;5075668;28;20576;-80
2022/08/18 13:31:36;;;;;;;8.88;7.35;;;;;;;;;;5056236;28;20041;-80
2022/08/18 13:34:06;;;;;;;16.45;9.52;;;;;;;;;;5056824;28;20408;-81
2022/08/18 13:36:44;;;;;;;13.85;9.43;;;;;;;;;;5059591;28;20054;-81
2022/08/18 13:39:14;;;;;;;14.52;9.13;;;;;;;;;;5081404;28;20056;-81
2022/08/18 13:41:42;;;;;;;12.35;8.07;;;;;;;;;;5080564;28;20075;-81
2022/08/18 13:44:13;;;;;;;12.88;7.97;;;;;;;;;;5061940;28;20059;-81
2022/08/18 13:46:46;;;;;;;8.43;7.45;;;;;;;;;;5080255;28;20059;-81
2022/08/18 13:49:14;;;;;;;11.20;7.85;;;;;;;;;;5065851;28;20098;-81
2022/08/18 13:51:50;;;;;;;8.30;7.18;;;;;;;;;;5065473;28;20048;-81
2022/08/18 13:54:19;;;;;;;7.82;7.00;;;;;;;;;;5063159;28;20045;-81
2022/08/18 13:56:57;;;;;;;8.52;7.72;;;;;;;;;;5081448;28;20074;-81
2022/08/18 13:59:30;;;;;;;9.02;7.55;;;;;;;;;;5064323;28;20045;-80
2022/08/18 14:01:57;;;;;;;10.03;7.70;;;;;;;;;;5080569;28;20048;-80
2022/08/18 14:04:26;;;;;;;13.68;7.70;;;;;;;;;;5060565;28;20088;-80
2022/08/18 14:06:54;;;;;;;11.45;8.23;;;;;;;;;;5058718;28;20048;-80
2022/08/18 14:09:27;;;;;;;12.57;8.50;;;;;;;;;;5058660;28;20079;-81
2022/08/18 14:12:05;;;;;;;8.13;7.32;;;;;;;;;;5058873;28;20411;-80
2022/08/18 14:14:32;;;;;;;12.85;7.97;;;;;;;;;;5075304;28;20439;-80
2022/08/18 14:17:00;;;;;;;11.48;8.00;;;;;;;;;;5058220;28;20045;-80
2022/08/18 14:27:49;;;;;;;10.68;6.75;;;;;;;;;;5076321;28;20461;-80
2022/08/18 14:30:23;;;;;;;7.40;6.65;;;;;;;;;;5059729;28;20058;-80
2022/08/18 14:32:52;;;;;;;10.27;5.82;;;;;;;;;;5076244;28;20045;-81
2022/08/18 14:35:21;;;;;;;11.65;6.25;;;;;;;;;;5058822;28;20144;-81
2022/08/18 14:38:00;;;;;;;5.07;4.70;;;;;;;;;;5064855;28;20498;-81
2022/08/18 14:40:28;;;;;;;6.13;5.53;;;;;;;;;;5065228;28;20048;-80
2022/08/18 14:42:56;;;;;;;9.35;5.35;;;;;;;;;;5061078;28;20063;-81
2022/08/18 14:45:24;;;;;;;4.95;4.50;;;;;;;;;;5061111;28;20048;-81
2022/08/18 14:48:00;;;;;;;5.85;5.25;;;;;;;;;;5062377;28;20056;-79
2022/08/18 14:50:32;;;;;;;8.00;4.65;;;;;;;;;;5056984;28;20048;-80
2022/08/18 14:53:01;;;;;;;5.82;4.97;;;;;;;;;;5058533;28;20041;-80
2022/08/18 14:55:28;;;;;;;5.20;4.75;;;;;;;;;;5058957;28;20079;-81
2022/08/18 14:57:57;;;;;;;5.70;5.00;;;;;;;;;;5059415;28;20053;-80
2022/08/18 15:00:26;;;;;;;5.80;5.30;;;;;;;;;;5058200;28;20098;-80
2022/08/18 15:02:53;;;;;;;7.07;4.95;;;;;;;;;;5076229;28;20048;-80
2022/08/18 15:05:20;;;;;;;6.45;4.70;;;;;;;;;;5059026;28;20045;-80
2022/08/18 15:07:51;;;;;;;6.95;5.40;;;;;;;;;;5058390;28;20051;-80
2022/08/18 15:10:18;;;;;;;9.02;5.75;;;;;;;;;;5058550;28;20062;-80
2022/08/18 15:12:53;;;;;;;6.63;6.00;;;;;;;;;;5060298;28;20049;-81
2022/08/18 15:15:21;;;;;;;8.75;5.85;;;;;;;;;;5057052;28;20462;-80
2022/08/18 15:17:48;;;;;;;7.53;6.00;;;;;;;;;;5075819;28;20499;-80
2022/08/18 15:20:19;;;;;;;7.65;6.80;;;;;;;;;;5058883;28;20053;-80
2022/08/18 15:25:48;;;;;;;6.57;5.85;;;;;;;;;;5076212;28;20590;-80
2022/08/18 15:28:19;;;;;;;11.93;8.27;;;;;;;;;;5060654;28;20076;-80
2022/08/18 15:30:47;;;;;;;10.05;7.15;;;;;;;;;;5062306;28;20048;-79
2022/08/18 15:33:17;;;;;;;6.65;5.68;;;;;;;;;;5078160;28;20044;-81